createdAt,value
2023-04-15T00:01:06.257Z,2.17
2023-04-15T00:03:34.472Z,4.07
2023-04-15T00:06:01.604Z,2.95
2023-04-15T00:08:28.069Z,3.33
2023-04-15T00:10:54.659Z,2.35
2023-04-15T00:13:20.977Z,2.85
2023-04-15T00:15:47.903Z,2.20
2023-04-15T00:18:14.257Z,3.03
2023-04-15T00:20:40.597Z,2.58
2023-04-15T00:23:07.960Z,2.35
2023-04-15T00:25:34.293Z,2.42
2023-04-15T00:28:00.574Z,2.50
2023-04-15T00:30:26.951Z,2.63
2023-04-15T00:32:53.443Z,2.30
2023-04-15T00:35:19.816Z,2.75
2023-04-15T00:37:48.506Z,2.20
2023-04-15T00:40:18.675Z,2.30
2023-04-15T00:42:45.447Z,2.63
2023-04-15T00:45:11.916Z,2.83
2023-04-15T00:47:41.449Z,2.17
2023-04-15T00:50:08.779Z,2.83
2023-04-15T00:52:35.093Z,2.92
2023-04-15T00:55:02.245Z,2.05
2023-04-15T00:57:29.124Z,2.70
2023-04-15T00:59:56.718Z,2.20
2023-04-15T01:02:24.115Z,3.05
2023-04-15T01:04:50.731Z,2.63
2023-04-15T01:07:17.303Z,2.00
2023-04-15T01:09:43.758Z,2.70
2023-04-15T01:12:14.094Z,2.50
2023-04-15T01:14:40.428Z,2.33
2023-04-15T01:17:07.359Z,2.28
2023-04-15T01:19:33.765Z,2.53
2023-04-15T01:22:00.180Z,2.42
2023-04-15T01:24:28.150Z,2.45
2023-04-15T01:26:54.532Z,2.38
2023-04-15T01:29:20.925Z,2.75
2023-04-15T01:31:54.880Z,2.28
2023-04-15T01:34:21.586Z,3.00
2023-04-15T01:36:47.905Z,2.63
2023-04-15T01:39:14.737Z,2.90
2023-04-15T01:41:42.303Z,2.45
2023-04-15T01:44:08.811Z,3.00
2023-04-15T01:46:35.741Z,2.60
2023-04-15T01:49:02.375Z,2.50
2023-04-15T01:51:28.917Z,2.05
2023-04-15T01:53:56.995Z,2.80
2023-04-15T01:56:26.439Z,2.75
2023-04-15T01:58:53.228Z,2.45
2023-04-15T02:01:19.901Z,2.28
2023-04-15T02:03:46.967Z,7.32
2023-04-15T02:06:13.459Z,2.78
2023-04-15T02:08:39.749Z,3.05
2023-04-15T02:11:06.032Z,1.92
2023-04-15T02:13:32.291Z,2.53
2023-04-15T02:15:59.238Z,2.35
2023-04-15T02:18:25.626Z,2.70
2023-04-15T02:20:52.473Z,2.28
2023-04-15T02:23:18.783Z,2.42
2023-04-15T02:25:53.480Z,2.40
2023-04-15T02:28:21.005Z,2.03
2023-04-15T02:30:52.499Z,2.05
2023-04-15T02:33:19.161Z,2.75
2023-04-15T02:35:45.724Z,2.85
2023-04-15T02:38:12.445Z,2.25
2023-04-15T02:40:38.898Z,2.92
2023-04-15T02:43:06.936Z,3.15
2023-04-15T02:45:33.484Z,2.92
2023-04-15T02:48:01.407Z,3.33
2023-04-15T02:50:27.799Z,3.42
2023-04-15T02:52:54.077Z,3.22
2023-04-15T02:55:20.482Z,2.78
2023-04-15T02:57:46.772Z,2.72
2023-04-15T03:00:14.054Z,3.10
2023-04-15T03:02:42.077Z,3.20
2023-04-15T03:05:12.584Z,3.03
2023-04-15T03:07:40.271Z,3.63
2023-04-15T03:10:07.890Z,2.90
2023-04-15T03:12:34.194Z,3.17
2023-04-15T03:15:02.027Z,2.72
2023-04-15T03:17:28.356Z,2.70
2023-04-15T03:19:54.697Z,3.10
2023-04-15T03:22:21.249Z,3.22
2023-04-15T03:24:47.587Z,2.53
2023-04-15T03:27:13.938Z,2.95
2023-04-15T03:29:40.457Z,2.72
2023-04-15T03:32:06.922Z,3.40
2023-04-15T03:34:33.182Z,2.75
2023-04-15T03:36:59.523Z,3.13
2023-04-15T03:39:25.796Z,3.00
2023-04-15T03:41:52.070Z,3.20
2023-04-15T03:44:18.330Z,3.10
2023-04-15T03:46:44.665Z,3.33
2023-04-15T03:49:11.103Z,3.22
2023-04-15T03:51:37.382Z,2.67
2023-04-15T03:54:03.638Z,2.80
2023-04-15T03:56:29.924Z,2.63
2023-04-15T03:58:56.183Z,3.05
2023-04-15T04:01:22.943Z,2.97
2023-04-15T04:03:49.318Z,3.33
2023-04-15T04:06:16.780Z,2.70
2023-04-15T04:08:43.437Z,3.10
2023-04-15T04:11:09.735Z,3.25
2023-04-15T04:13:36.048Z,2.78
2023-04-15T04:16:04.657Z,3.13
2023-04-15T04:18:34.152Z,3.67
2023-04-15T04:21:01.015Z,3.72
2023-04-15T04:23:27.364Z,2.95
2023-04-15T04:25:53.710Z,3.53
2023-04-15T04:28:19.953Z,2.75
2023-04-15T04:30:46.279Z,3.13
2023-04-15T04:33:12.822Z,2.83
2023-04-15T04:35:39.124Z,3.05
2023-04-15T04:38:05.389Z,3.28
2023-04-15T04:40:31.720Z,2.97
2023-04-15T04:42:58.095Z,3.08
2023-04-15T04:45:24.361Z,2.45
2023-04-15T04:47:50.685Z,2.72
2023-04-15T04:50:17.132Z,2.47
2023-04-15T04:52:43.435Z,2.35
2023-04-15T04:55:09.714Z,3.63
2023-04-15T04:57:36.407Z,2.40
2023-04-15T05:00:04.797Z,3.25
2023-04-15T05:02:32.371Z,3.17
2023-04-15T05:04:58.792Z,2.40
2023-04-15T05:07:25.083Z,2.67
2023-04-15T05:09:51.438Z,4.35
2023-04-15T05:12:18.231Z,3.10
2023-04-15T05:14:44.526Z,3.35
2023-04-15T05:17:11.458Z,2.78
2023-04-15T05:19:37.835Z,3.35
2023-04-15T05:22:05.149Z,3.45
2023-04-15T05:24:31.512Z,3.00
2023-04-15T05:26:57.839Z,3.47
2023-04-15T05:29:24.157Z,3.67
2023-04-15T05:31:50.680Z,3.78
2023-04-15T05:34:37.515Z,3.70
2023-04-15T05:37:03.801Z,3.60
2023-04-15T05:39:30.819Z,3.88
2023-04-15T05:44:23.990Z,3.17
2023-04-15T05:46:50.256Z,2.95
2023-04-15T05:49:18.841Z,4.75
2023-04-15T05:51:45.660Z,3.47
2023-04-15T05:54:11.930Z,3.22
2023-04-15T05:56:38.200Z,3.75
2023-04-15T05:59:04.504Z,4.07
2023-04-15T06:01:31.017Z,3.83
2023-04-15T06:03:57.546Z,4.45
2023-04-15T06:06:24.208Z,4.53
2023-04-15T06:08:50.801Z,3.72
2023-04-15T06:11:17.168Z,3.70
2023-04-15T06:13:43.426Z,3.33
2023-04-15T06:16:09.783Z,3.80
2023-04-15T06:18:36.112Z,3.50
2023-04-15T06:21:02.457Z,3.65
2023-04-15T06:23:28.832Z,3.72
2023-04-15T06:25:55.101Z,3.30
2023-04-15T06:28:21.493Z,3.50
2023-04-15T06:30:47.779Z,4.00
2023-04-15T06:33:14.074Z,3.35
2023-04-15T06:35:40.501Z,4.22
2023-04-15T06:38:07.031Z,3.33
2023-04-15T06:40:33.556Z,4.05
2023-04-15T06:42:59.836Z,3.70
2023-04-15T06:45:26.533Z,4.20
2023-04-15T06:47:52.987Z,4.50
2023-04-15T06:50:19.293Z,4.28
2023-04-15T06:52:46.033Z,4.35
2023-04-15T06:55:12.564Z,5.25
2023-04-15T06:57:38.854Z,5.25
2023-04-15T07:00:05.735Z,4.72
2023-04-15T07:02:32.230Z,4.85
2023-04-15T07:04:58.598Z,4.53
2023-04-15T07:07:25.578Z,5.10
2023-04-15T07:09:53.627Z,4.45
2023-04-15T07:12:20.296Z,4.68
2023-04-15T07:14:46.574Z,5.00
2023-04-15T07:17:13.218Z,4.65
2023-04-15T07:22:05.946Z,4.63
2023-04-15T07:24:32.251Z,4.68
2023-04-15T07:27:00.811Z,4.93
2023-04-15T07:29:27.679Z,5.47
2023-04-15T07:31:53.963Z,5.07
2023-04-15T07:34:20.868Z,4.85
2023-04-15T07:36:50.478Z,6.25
2023-04-15T07:39:16.772Z,5.05
2023-04-15T07:41:43.416Z,4.72
2023-04-15T07:44:09.904Z,4.97
2023-04-15T07:46:37.224Z,4.40
2023-04-15T07:49:04.112Z,5.50
2023-04-15T07:51:30.690Z,5.28
2023-04-15T07:53:56.963Z,5.10
2023-04-15T07:56:23.267Z,4.97
2023-04-15T07:58:49.512Z,5.57
2023-04-15T08:01:15.995Z,5.93
2023-04-15T08:03:43.095Z,5.38
2023-04-15T08:06:09.512Z,5.95
2023-04-15T08:08:35.771Z,5.68
2023-04-15T08:11:02.096Z,5.85
2023-04-15T08:13:28.463Z,6.10
2023-04-15T08:16:13.760Z,5.55
2023-04-15T08:18:40.074Z,6.30
2023-04-15T08:21:06.503Z,6.35
2023-04-15T08:23:33.474Z,7.55
2023-04-15T08:25:59.792Z,5.60
2023-04-15T08:28:26.180Z,5.93
2023-04-15T08:30:55.516Z,6.38
2023-04-15T08:33:21.871Z,6.32
2023-04-15T08:35:49.198Z,6.43
2023-04-15T08:38:15.540Z,5.82
2023-04-15T08:40:44.330Z,6.25
2023-04-15T08:43:15.678Z,5.15
2023-04-15T08:45:43.626Z,6.70
2023-04-15T08:48:14.691Z,4.25
2023-04-15T08:50:40.979Z,4.78
2023-04-15T08:53:07.570Z,5.80
2023-04-15T08:55:36.214Z,4.07
2023-04-15T08:58:03.067Z,4.43
2023-04-15T09:00:29.547Z,3.97
2023-04-15T09:02:56.898Z,4.38
2023-04-15T09:05:23.268Z,4.03
2023-04-15T09:07:51.287Z,3.33
2023-04-15T09:10:17.876Z,3.92
2023-04-15T09:12:44.241Z,2.88
2023-04-15T09:15:13.573Z,3.10
2023-04-15T09:17:44.149Z,3.05
2023-04-15T09:20:13.451Z,2.92
2023-04-15T09:22:41.034Z,2.47
2023-04-15T09:25:29.359Z,2.75
2023-04-15T09:27:58.153Z,2.22
2023-04-15T09:30:24.819Z,2.33
2023-04-15T09:35:28.881Z,2.08
2023-04-15T09:38:06.202Z,1.90
2023-04-15T09:40:39.606Z,1.73
2023-04-15T09:43:07.364Z,1.67
2023-04-15T09:45:35.793Z,1.55
2023-04-15T09:48:18.019Z,2.00
2023-04-15T09:50:44.694Z,1.95
2023-04-15T09:55:40.928Z,1.73
2023-04-15T09:58:17.958Z,1.90
2023-04-15T10:00:44.392Z,1.55
2023-04-15T10:03:11.617Z,1.90
2023-04-15T10:05:39.238Z,1.67
2023-04-15T10:08:05.887Z,1.52
2023-04-15T10:12:59.678Z,2.58
2023-04-15T10:15:28.056Z,2.30
2023-04-15T10:17:56.431Z,2.20
2023-04-15T10:20:23.910Z,2.53
2023-04-15T10:22:51.356Z,2.17
2023-04-15T10:25:18.457Z,2.13
2023-04-15T10:27:45.157Z,2.35
2023-04-15T10:32:39.207Z,2.42
2023-04-15T10:35:07.083Z,2.55
2023-04-15T10:37:38.075Z,2.28
2023-04-15T10:40:33.109Z,2.20
2023-04-15T10:43:01.487Z,2.92
2023-04-15T10:45:32.607Z,2.25
2023-04-15T10:48:03.632Z,2.08
2023-04-15T10:50:33.893Z,2.05
2023-04-15T10:53:03.796Z,2.03
2023-04-15T10:55:34.402Z,1.92
2023-04-15T10:58:02.277Z,1.73
2023-04-15T11:00:30.590Z,2.28
2023-04-15T11:03:07.111Z,2.08
2023-04-15T11:05:39.269Z,1.58
2023-04-15T11:08:05.571Z,1.85
2023-04-15T11:10:31.795Z,1.98
2023-04-15T11:12:59.211Z,2.20
2023-04-15T11:15:31.894Z,1.98
2023-04-15T11:17:59.675Z,2.10
2023-04-15T11:20:26.960Z,1.92
2023-04-15T11:23:14.375Z,2.00
2023-04-15T11:25:40.924Z,1.83
2023-04-15T11:28:09.830Z,1.83
2023-04-15T11:30:37.785Z,1.90
2023-04-15T11:33:09.160Z,1.67
2023-04-15T11:35:36.097Z,1.88
2023-04-15T11:38:11.060Z,2.00
2023-04-15T11:40:37.969Z,1.83
2023-04-15T11:43:08.256Z,2.03
2023-04-15T11:45:35.491Z,2.13
2023-04-15T11:48:06.805Z,2.05
2023-04-15T11:50:34.053Z,2.28
2023-04-15T11:53:03.187Z,2.30
2023-04-15T11:55:30.284Z,2.47
2023-04-15T11:58:18.430Z,1.77
2023-04-15T12:00:47.947Z,2.08
2023-04-15T12:03:31.259Z,1.80
2023-04-15T12:06:19.949Z,1.88
2023-04-15T12:08:55.426Z,1.73
2023-04-15T12:11:27.548Z,1.60
2023-04-15T12:13:56.750Z,2.00
2023-04-15T12:16:24.944Z,1.88
2023-04-15T12:18:53.306Z,1.80
2023-04-15T12:21:20.963Z,1.48
2023-04-15T12:23:57.151Z,1.67
2023-04-15T12:26:51.728Z,1.27
2023-04-15T12:29:18.317Z,1.27
2023-04-15T12:31:52.098Z,1.83
2023-04-15T12:34:26.124Z,2.35
2023-04-15T12:36:52.396Z,1.77
2023-04-15T12:39:22.566Z,1.98
2023-04-15T12:41:48.844Z,1.55
2023-04-15T12:44:15.105Z,2.40
2023-04-15T12:46:41.491Z,2.45
2023-04-15T12:49:09.186Z,2.33
2023-04-15T12:51:35.484Z,2.58
2023-04-15T12:54:01.826Z,2.40
2023-04-15T12:56:28.160Z,2.58
2023-04-15T12:58:54.429Z,2.83
2023-04-15T13:01:20.853Z,2.72
2023-04-15T13:03:48.109Z,3.42
2023-04-15T13:06:14.444Z,2.92
2023-04-15T13:08:47.992Z,3.42
2023-04-15T13:11:22.624Z,3.58
2023-04-15T13:13:49.003Z,3.70
2023-04-15T13:16:15.646Z,3.65
2023-04-15T13:21:08.335Z,2.83
2023-04-15T13:23:34.681Z,3.05
2023-04-15T13:26:00.957Z,3.40
2023-04-15T13:28:27.225Z,2.90
2023-04-15T13:30:53.665Z,2.33
2023-04-15T13:33:20.089Z,2.72
2023-04-15T13:35:46.497Z,3.33
2023-04-15T13:38:12.831Z,2.92
2023-04-15T13:40:39.207Z,2.45
2023-04-15T13:43:05.674Z,2.38
2023-04-15T13:45:32.036Z,2.10
2023-04-15T13:47:58.416Z,2.30
2023-04-15T13:50:24.939Z,2.13
2023-04-15T13:52:51.310Z,2.33
2023-04-15T13:55:20.239Z,2.05
2023-04-15T13:57:47.685Z,1.55
2023-04-15T14:00:14.848Z,1.73
2023-04-15T14:02:42.447Z,1.42
2023-04-15T14:05:09.312Z,1.77
2023-04-15T14:07:35.825Z,1.60
2023-04-15T14:10:02.163Z,2.35
2023-04-15T14:12:28.501Z,1.60
2023-04-15T14:14:54.992Z,1.60
2023-04-15T14:17:21.536Z,1.98
2023-04-15T14:19:47.930Z,1.77
2023-04-15T14:22:14.222Z,1.70
2023-04-15T14:24:48.935Z,1.73
2023-04-15T14:27:16.349Z,1.88
2023-04-15T14:29:42.874Z,2.15
2023-04-15T14:32:12.157Z,1.73
2023-04-15T14:34:39.364Z,1.65
2023-04-15T14:37:05.828Z,1.60
2023-04-15T14:39:32.329Z,1.55
2023-04-15T14:41:58.825Z,1.73
2023-04-15T14:44:25.539Z,1.50
2023-04-15T14:49:18.423Z,1.40
2023-04-15T14:51:44.719Z,1.30
2023-04-15T14:54:11.017Z,1.60
2023-04-15T14:56:37.314Z,1.90
2023-04-15T14:59:03.780Z,1.77
2023-04-15T15:01:30.348Z,2.42
2023-04-15T15:03:56.742Z,1.98
2023-04-15T15:06:23.205Z,1.73
2023-04-15T15:08:49.713Z,1.80
2023-04-15T15:11:16.915Z,1.73
2023-04-15T15:13:43.192Z,1.35
2023-04-15T15:16:10.267Z,1.40
2023-04-15T15:18:37.320Z,1.73
2023-04-15T15:21:03.747Z,1.60
2023-04-15T15:23:30.074Z,1.65
2023-04-15T15:25:57.376Z,2.45
2023-04-15T15:28:23.667Z,2.00
2023-04-15T15:30:49.995Z,2.05
2023-04-15T15:33:16.337Z,2.50
2023-04-15T15:35:42.681Z,2.22
2023-04-15T15:38:11.540Z,1.63
2023-04-15T15:40:37.914Z,1.73
2023-04-15T15:43:04.556Z,2.65
2023-04-15T15:45:31.106Z,1.77
2023-04-15T15:47:58.326Z,1.52
2023-04-15T15:50:25.066Z,1.55
2023-04-15T15:52:51.441Z,1.63
2023-04-15T15:55:17.966Z,2.05
2023-04-15T15:57:44.478Z,1.08
2023-04-15T16:00:12.680Z,1.33
2023-04-15T16:03:05.092Z,1.30
2023-04-15T16:05:26.204Z,1.83
2023-04-15T16:07:52.621Z,1.63
2023-04-15T16:10:19.077Z,1.33
2023-04-15T16:12:45.621Z,1.55
2023-04-15T16:15:12.513Z,1.42
2023-04-15T16:17:38.980Z,1.40
2023-04-15T16:20:06.324Z,1.67
2023-04-15T16:22:34.220Z,2.22
2023-04-15T16:25:00.936Z,2.83
2023-04-15T16:29:53.970Z,2.05
2023-04-15T16:32:20.449Z,2.83
2023-04-15T16:34:47.429Z,2.55
2023-04-15T16:37:13.745Z,3.15
2023-04-15T16:39:40.627Z,3.45
2023-04-15T16:44:33.887Z,2.70
2023-04-15T16:47:02.194Z,2.45
2023-04-15T16:49:29.776Z,3.35
2023-04-15T16:51:56.100Z,3.42
2023-04-15T16:54:22.427Z,3.03
2023-04-15T16:56:48.730Z,3.55
2023-04-15T16:59:15.022Z,3.50
2023-04-15T17:01:41.516Z,11.60
2023-04-15T17:04:08.122Z,3.83
2023-04-15T17:06:34.530Z,3.72
2023-04-15T17:09:00.805Z,4.03
2023-04-15T17:11:28.194Z,3.55
2023-04-15T17:13:54.592Z,4.20
2023-04-15T17:16:21.181Z,3.85
2023-04-15T17:18:47.626Z,4.38
2023-04-15T17:21:15.213Z,3.95
2023-04-15T17:23:41.532Z,3.95
2023-04-15T17:26:08.198Z,3.42
2023-04-15T17:28:34.515Z,4.15
2023-04-15T17:31:01.205Z,4.85
2023-04-15T17:34:00.208Z,4.38
2023-04-15T17:36:13.791Z,5.10
2023-04-15T17:38:40.220Z,4.57
2023-04-15T17:41:07.792Z,4.47
2023-04-15T17:43:34.137Z,4.38
2023-04-15T17:46:00.516Z,4.68
2023-04-15T17:48:27.153Z,4.82
2023-04-15T17:50:53.561Z,4.82
2023-04-15T17:53:19.898Z,4.57
2023-04-15T17:55:46.385Z,4.30
2023-04-15T17:58:12.749Z,5.25
2023-04-15T18:00:39.078Z,4.85
2023-04-15T18:03:05.604Z,6.15
2023-04-15T18:05:32.083Z,4.22
2023-04-15T18:07:58.416Z,4.35
2023-04-15T18:10:24.766Z,4.75
2023-04-15T18:12:51.061Z,5.63
2023-04-15T18:15:25.578Z,5.20
2023-04-15T18:17:52.097Z,5.07
2023-04-15T18:20:18.896Z,5.32
2023-04-15T18:22:45.230Z,6.15
2023-04-15T18:25:11.542Z,4.80
2023-04-15T18:27:40.789Z,4.60
2023-04-15T18:30:08.834Z,4.78
2023-04-15T18:32:35.444Z,4.63
2023-04-15T18:35:02.073Z,6.93
2023-04-15T18:37:31.631Z,5.60
2023-04-15T18:39:58.815Z,4.88
2023-04-15T18:42:25.804Z,5.13
2023-04-15T18:44:52.953Z,5.05
2023-04-15T18:47:19.474Z,4.82
2023-04-15T18:49:46.020Z,4.97
2023-04-15T18:52:12.572Z,5.97
2023-04-15T18:54:38.921Z,5.38
2023-04-15T18:57:06.414Z,5.32
2023-04-15T18:59:33.630Z,5.40
2023-04-15T19:02:00.355Z,5.15
2023-04-15T19:04:28.868Z,5.13
2023-04-15T19:06:55.945Z,5.50
2023-04-15T19:09:22.342Z,5.95
2023-04-15T19:11:48.828Z,6.60
2023-04-15T19:14:15.114Z,6.82
2023-04-15T19:16:41.469Z,5.78
2023-04-15T19:19:07.938Z,5.35
2023-04-15T19:21:37.630Z,6.18
2023-04-15T19:24:04.015Z,6.40
2023-04-15T19:26:30.385Z,7.13
2023-04-15T19:28:58.804Z,6.45
2023-04-15T19:31:26.179Z,7.22
2023-04-15T19:33:52.757Z,6.45
2023-04-15T19:36:19.153Z,7.72
2023-04-15T19:38:45.621Z,7.15
2023-04-15T19:41:11.964Z,5.93
2023-04-15T19:43:38.370Z,6.88
2023-04-15T19:46:04.762Z,6.75
2023-04-15T19:48:31.078Z,6.70
2023-04-15T19:50:57.551Z,6.65
2023-04-15T19:53:25.491Z,6.72
2023-04-15T19:55:51.814Z,6.55
2023-04-15T19:58:18.112Z,6.65
2023-04-15T20:00:44.426Z,7.50
2023-04-15T20:03:10.892Z,6.85
2023-04-15T20:05:37.354Z,7.22
2023-04-15T20:08:03.725Z,7.22
2023-04-15T20:10:31.574Z,7.63
2023-04-15T20:12:57.962Z,7.75
2023-04-15T20:15:24.371Z,7.05
2023-04-15T20:17:50.953Z,6.03
2023-04-15T20:20:17.343Z,5.93
2023-04-15T20:22:43.678Z,5.95
2023-04-15T20:25:10.082Z,5.57
2023-04-15T20:27:36.381Z,5.90
2023-04-15T20:30:04.757Z,5.63
2023-04-15T20:32:35.854Z,5.97
2023-04-15T20:35:04.182Z,6.10
2023-04-15T20:37:32.966Z,5.97
2023-04-15T20:40:00.630Z,6.88
2023-04-15T20:42:26.928Z,6.28
2023-04-15T20:44:53.285Z,5.93
2023-04-15T20:47:19.658Z,6.82
2023-04-15T20:49:47.281Z,5.53
2023-04-15T20:52:13.688Z,6.82
2023-04-15T20:54:39.986Z,6.40
2023-04-15T20:57:06.275Z,5.68
2023-04-15T20:59:34.538Z,5.90
2023-04-15T21:02:00.980Z,5.53
2023-04-15T21:04:27.540Z,5.53
2023-04-15T21:06:53.969Z,5.55
2023-04-15T21:09:20.316Z,5.32
2023-04-15T21:14:18.906Z,4.57
2023-04-15T21:16:45.536Z,5.07
2023-04-15T21:19:12.022Z,5.30
2023-04-15T21:21:38.391Z,4.80
2023-04-15T21:24:06.753Z,4.40
2023-04-15T21:26:33.426Z,4.93
2023-04-15T21:28:59.693Z,4.63
2023-04-15T21:31:26.192Z,4.20
2023-04-15T21:33:52.687Z,5.28
2023-04-15T21:36:19.141Z,4.57
2023-04-15T21:38:45.492Z,4.25
2023-04-15T21:41:11.778Z,5.10
2023-04-15T21:43:38.174Z,3.35
2023-04-15T21:46:23.647Z,4.35
2023-04-15T21:48:51.450Z,4.53
2023-04-15T21:53:44.218Z,4.10
2023-04-15T21:56:10.837Z,4.40
2023-04-15T21:58:37.229Z,3.45
2023-04-15T22:01:04.716Z,4.00
2023-04-15T22:03:34.899Z,3.97
2023-04-15T22:06:02.329Z,4.30
2023-04-15T22:08:28.836Z,3.72
2023-04-15T22:10:55.549Z,4.40
2023-04-15T22:13:21.892Z,3.95
2023-04-15T22:15:48.201Z,3.78
2023-04-15T22:18:14.603Z,3.83
2023-04-15T22:20:40.995Z,4.03
2023-04-15T22:23:10.288Z,4.03
2023-04-15T22:25:37.278Z,3.95
2023-04-15T22:28:06.833Z,3.95
2023-04-15T22:30:40.093Z,3.45
2023-04-15T22:33:07.693Z,4.35
2023-04-15T22:35:36.101Z,4.38
2023-04-15T22:38:03.583Z,4.07
2023-04-15T22:40:30.194Z,5.18
2023-04-15T22:42:56.522Z,4.70
2023-04-15T22:45:22.831Z,4.80
2023-04-15T22:47:49.105Z,4.03
2023-04-15T22:50:15.423Z,5.03
2023-04-15T22:52:43.256Z,5.35
2023-04-15T22:55:09.784Z,4.90
2023-04-15T22:57:36.102Z,5.50
2023-04-15T23:00:02.794Z,6.43
2023-04-15T23:02:29.209Z,4.78
2023-04-15T23:04:55.958Z,5.00
2023-04-15T23:07:22.381Z,5.75
2023-04-15T23:09:48.667Z,5.65
2023-04-15T23:12:15.140Z,5.28
2023-04-15T23:14:41.443Z,5.15
2023-04-15T23:17:07.768Z,5.63
2023-04-15T23:19:34.100Z,6.13
2023-04-15T23:22:00.840Z,5.70
2023-04-15T23:24:27.204Z,5.65
2023-04-15T23:26:53.497Z,5.65
2023-04-15T23:29:19.789Z,5.55
2023-04-15T23:31:46.165Z,5.57
2023-04-15T23:34:12.505Z,6.13
2023-04-15T23:36:38.854Z,4.97
2023-04-15T23:39:05.279Z,6.03
2023-04-15T23:41:31.564Z,5.10
2023-04-15T23:43:57.819Z,5.03
2023-04-15T23:46:24.174Z,5.25
2023-04-15T23:48:50.588Z,5.72
2023-04-15T23:51:16.948Z,5.30
2023-04-15T23:53:43.326Z,4.97
2023-04-15T23:56:09.753Z,6.40
2023-04-15T23:58:36.418Z,5.43
